Time;durP1;ratioP1;P1;durP2;ratioP2;P2;SDS_P1;SDS_P2;PMS_P1;PMS_P2;Temp;Humidity;BMP_temperature;BMP_pressure;BME280_temperature;BME280_humidity;BME280_pressure;Samples;Min_cycle;Max_cycle;Signal;HPM_P1;HPM_P2
2023/05/20 00:01:01;;;;;;;39.17;20.25;;;;;;;;;;6182302;28;20234;-60
2023/05/20 00:04:02;;;;;;;41.40;20.35;;;;;;;;;;6183416;28;20520;-59
2023/05/20 00:07:03;;;;;;;45.47;22.38;;;;;;;;;;6193274;28;20097;-59
2023/05/20 00:10:03;;;;;;;42.05;22.00;;;;;;;;;;6187588;28;20042;-58
2023/05/20 00:13:05;;;;;;;44.35;22.15;;;;;;;;;;6188043;28;20516;-60
2023/05/20 00:16:06;;;;;;;38.47;19.25;;;;;;;;;;6202963;28;20777;-59
2023/05/20 00:19:06;;;;;;;43.88;20.83;;;;;;;;;;6187083;28;20046;-61
2023/05/20 00:22:07;;;;;;;39.88;20.83;;;;;;;;;;6187902;28;20912;-57
2023/05/20 00:25:08;;;;;;;41.15;21.17;;;;;;;;;;6188102;28;20041;-59
2023/05/20 00:28:08;;;;;;;40.15;20.42;;;;;;;;;;6183906;28;20053;-58
2023/05/20 00:31:09;;;;;;;46.35;22.63;;;;;;;;;;6185992;28;20046;-57
2023/05/20 00:34:10;;;;;;;46.30;21.80;;;;;;;;;;6187476;28;20133;-58
2023/05/20 00:37:10;;;;;;;38.55;18.63;;;;;;;;;;6187944;28;20057;-60
2023/05/20 00:40:11;;;;;;;40.85;19.88;;;;;;;;;;6187854;28;20489;-59
2023/05/20 00:43:12;;;;;;;39.05;18.38;;;;;;;;;;6186930;28;20047;-59
2023/05/20 00:46:13;;;;;;;43.10;21.38;;;;;;;;;;6186933;28;20050;-56
2023/05/20 00:49:14;;;;;;;41.83;20.65;;;;;;;;;;6185904;28;20089;-58
2023/05/20 00:52:15;;;;;;;39.97;20.53;;;;;;;;;;6185626;28;20469;-60
2023/05/20 00:55:16;;;;;;;40.72;20.48;;;;;;;;;;6188962;28;20038;-61
2023/05/20 00:58:17;;;;;;;42.30;19.88;;;;;;;;;;6185722;28;20560;-59
2023/05/20 01:01:17;;;;;;;40.97;19.85;;;;;;;;;;6186319;28;20066;-59
2023/05/20 01:04:18;;;;;;;40.22;18.50;;;;;;;;;;6186041;28;20046;-56
2023/05/20 01:07:19;;;;;;;44.88;21.08;;;;;;;;;;6186059;28;20713;-61
2023/05/20 01:10:23;;;;;;;41.17;19.55;;;;;;;;;;6185131;28;20473;-57
2023/05/20 01:13:28;;;;;;;44.58;21.70;;;;;;;;;;6184732;28;20468;-58
2023/05/20 01:16:32;;;;;;;40.42;19.27;;;;;;;;;;6188387;28;20500;-60
2023/05/20 01:19:43;;;;;;;44.20;20.20;;;;;;;;;;6192030;28;20492;-59
2023/05/20 01:22:56;;;;;;;45.22;20.52;;;;;;;;;;6180708;28;20038;-54
2023/05/20 01:25:56;;;;;;;43.45;20.23;;;;;;;;;;6194154;28;20034;-59
2023/05/20 01:29:03;;;;;;;45.55;21.55;;;;;;;;;;6189213;28;20054;-58
2023/05/20 01:32:14;;;;;;;44.05;20.17;;;;;;;;;;6193648;28;20034;-56
2023/05/20 01:35:15;;;;;;;41.88;19.50;;;;;;;;;;6192959;28;20050;-60
2023/05/20 01:38:17;;;;;;;47.87;21.50;;;;;;;;;;6192529;28;20145;-60
2023/05/20 01:41:19;;;;;;;45.75;21.38;;;;;;;;;;6191483;28;20046;-60
2023/05/20 01:44:20;;;;;;;46.00;20.83;;;;;;;;;;6191873;28;20035;-52
2023/05/20 01:47:21;;;;;;;49.57;21.67;;;;;;;;;;6191026;28;20494;-60
2023/05/20 01:50:21;;;;;;;45.22;20.48;;;;;;;;;;6190604;28;20100;-61
2023/05/20 01:53:22;;;;;;;43.92;20.90;;;;;;;;;;6190085;28;20046;-59
2023/05/20 01:56:23;;;;;;;45.60;21.30;;;;;;;;;;6191679;28;20038;-60
2023/05/20 01:59:23;;;;;;;48.75;22.08;;;;;;;;;;6190329;28;20108;-60
2023/05/20 02:02:24;;;;;;;50.42;23.15;;;;;;;;;;6191646;28;20539;-61
2023/05/20 02:05:25;;;;;;;50.58;23.27;;;;;;;;;;6190949;28;20420;-55
2023/05/20 02:08:25;;;;;;;51.25;22.75;;;;;;;;;;6191331;28;20180;-59
2023/05/20 02:11:26;;;;;;;53.20;24.35;;;;;;;;;;6191341;28;20386;-60
2023/05/20 02:14:26;;;;;;;49.03;22.10;;;;;;;;;;6188679;28;20648;-60
2023/05/20 02:17:27;;;;;;;42.75;18.92;;;;;;;;;;6190558;28;20046;-60
2023/05/20 02:20:28;;;;;;;44.20;19.80;;;;;;;;;;6219107;28;20450;-58
2023/05/20 02:23:29;;;;;;;42.05;21.33;;;;;;;;;;6190089;28;20046;-61
2023/05/20 02:26:30;;;;;;;36.20;17.80;;;;;;;;;;6190894;28;20497;-59
2023/05/20 02:29:31;;;;;;;38.83;17.85;;;;;;;;;;6189755;28;20054;-60
2023/05/20 02:32:32;;;;;;;33.42;15.55;;;;;;;;;;6190684;28;20140;-61
2023/05/20 02:35:33;;;;;;;36.22;16.85;;;;;;;;;;6191901;28;20054;-58
2023/05/20 02:38:33;;;;;;;38.88;18.45;;;;;;;;;;6188438;28;20057;-61
2023/05/20 02:41:34;;;;;;;37.20;17.92;;;;;;;;;;6188215;28;20050;-60
2023/05/20 02:44:34;;;;;;;31.33;16.65;;;;;;;;;;6194295;28;20042;-59
2023/05/20 02:47:35;;;;;;;32.88;15.80;;;;;;;;;;6190507;28;20121;-58
2023/05/20 02:50:38;;;;;;;27.77;14.43;;;;;;;;;;6191169;28;20053;-57
2023/05/20 02:53:39;;;;;;;28.30;14.88;;;;;;;;;;6188843;28;20050;-59
2023/05/20 02:56:39;;;;;;;27.00;14.52;;;;;;;;;;6190547;28;20045;-60
2023/05/20 02:59:41;;;;;;;23.73;11.90;;;;;;;;;;6188129;28;20798;-60
2023/05/20 03:02:41;;;;;;;25.30;12.98;;;;;;;;;;6190223;28;20042;-59
2023/05/20 03:05:44;;;;;;;24.73;12.82;;;;;;;;;;6194307;28;20925;-60
2023/05/20 03:08:45;;;;;;;22.98;12.57;;;;;;;;;;6187855;28;20072;-59
2023/05/20 03:11:47;;;;;;;25.85;14.18;;;;;;;;;;6189861;28;20062;-58
2023/05/20 03:14:47;;;;;;;19.98;10.63;;;;;;;;;;6189628;28;21388;-60
2023/05/20 03:17:48;;;;;;;17.13;11.00;;;;;;;;;;6188368;28;20128;-55
2023/05/20 03:20:48;;;;;;;20.63;11.82;;;;;;;;;;6187400;28;20050;-59
2023/05/20 03:23:49;;;;;;;20.65;11.45;;;;;;;;;;6189279;28;20130;-60
2023/05/20 03:26:49;;;;;;;21.33;12.75;;;;;;;;;;6190072;28;20399;-60
2023/05/20 03:29:53;;;;;;;23.00;13.20;;;;;;;;;;6186628;28;20042;-60
2023/05/20 03:32:57;;;;;;;19.60;11.63;;;;;;;;;;6185682;28;20038;-60
2023/05/20 03:35:58;;;;;;;20.90;11.65;;;;;;;;;;6186923;28;20436;-57
2023/05/20 03:39:00;;;;;;;22.25;12.48;;;;;;;;;;6185473;28;20121;-61
2023/05/20 03:42:01;;;;;;;;;;;;;;;;;;6188927;28;20412;-60
2023/05/20 03:45:01;;;;;;;19.65;11.57;;;;;;;;;;6188206;28;19921;-59
2023/05/20 03:48:02;;;;;;;19.92;10.82;;;;;;;;;;6189529;28;20054;-61
2023/05/20 03:51:03;;;;;;;19.10;10.43;;;;;;;;;;6187646;28;20054;-61
2023/05/20 03:54:04;;;;;;;19.65;11.35;;;;;;;;;;6188102;28;20039;-60
2023/05/20 03:57:04;;;;;;;19.60;11.52;;;;;;;;;;6190689;28;20129;-61
2023/05/20 04:00:10;;;;;;;20.77;11.20;;;;;;;;;;6188850;28;20811;-60
2023/05/20 04:03:11;;;;;;;20.50;11.35;;;;;;;;;;6188537;28;20046;-59
2023/05/20 04:06:13;;;;;;;23.40;12.90;;;;;;;;;;6192301;28;20042;-61
2023/05/20 04:09:13;;;;;;;21.77;12.57;;;;;;;;;;6187112;28;20788;-61
2023/05/20 04:12:14;;;;;;;20.10;12.27;;;;;;;;;;6187940;28;20046;-59
2023/05/20 04:15:15;;;;;;;24.30;15.05;;;;;;;;;;6189507;28;20051;-60
2023/05/20 04:18:16;;;;;;;25.50;14.98;;;;;;;;;;6189889;28;20042;-60
2023/05/20 04:21:18;;;;;;;23.58;12.77;;;;;;;;;;6187597;28;20631;-59
2023/05/20 04:24:18;;;;;;;22.35;12.20;;;;;;;;;;6188283;28;20058;-60
2023/05/20 04:27:20;;;;;;;21.40;11.90;;;;;;;;;;6190540;28;20557;-61
2023/05/20 04:30:21;;;;;;;22.60;12.77;;;;;;;;;;6186667;28;20054;-60
2023/05/20 04:33:21;;;;;;;21.67;13.32;;;;;;;;;;6188179;28;20449;-59
2023/05/20 04:36:27;;;;;;;21.40;11.77;;;;;;;;;;6188671;28;20108;-60
2023/05/20 04:39:27;;;;;;;20.63;11.30;;;;;;;;;;6189871;28;20046;-60
2023/05/20 04:42:28;;;;;;;22.80;13.13;;;;;;;;;;6190636;28;20189;-57
2023/05/20 04:45:29;;;;;;;20.77;12.50;;;;;;;;;;6185412;28;20089;-58
2023/05/20 04:48:29;;;;;;;23.80;13.45;;;;;;;;;;6183821;28;20039;-60
2023/05/20 04:51:30;;;;;;;20.63;11.68;;;;;;;;;;6182854;28;20162;-60
2023/05/20 04:54:33;;;;;;;22.15;13.52;;;;;;;;;;6184500;28;20098;-58
2023/05/20 04:57:35;;;;;;;20.70;13.20;;;;;;;;;;6182276;28;20374;-60
2023/05/20 05:00:35;;;;;;;26.67;14.25;;;;;;;;;;6183899;28;20049;-58
2023/05/20 05:03:36;;;;;;;26.60;14.15;;;;;;;;;;6183180;28;20414;-59
2023/05/20 05:06:36;;;;;;;28.15;14.73;;;;;;;;;;6181954;28;20042;-59
2023/05/20 05:09:37;;;;;;;24.35;13.95;;;;;;;;;;6181191;28;20054;-55
2023/05/20 05:12:38;;;;;;;27.73;15.30;;;;;;;;;;6187381;28;20054;-54
2023/05/20 05:15:38;;;;;;;21.92;12.40;;;;;;;;;;6184654;28;20046;-59
2023/05/20 05:18:39;;;;;;;27.40;14.18;;;;;;;;;;6181415;28;20073;-56
2023/05/20 05:21:40;;;;;;;24.30;14.63;;;;;;;;;;6181874;28;20057;-60
2023/05/20 05:24:40;;;;;;;26.10;15.98;;;;;;;;;;6189156;28;20051;-58
2023/05/20 05:27:43;;;;;;;26.20;14.90;;;;;;;;;;6190447;28;20042;-60
2023/05/20 05:30:44;;;;;;;25.05;13.98;;;;;;;;;;6189343;28;20034;-57
2023/05/20 05:33:44;;;;;;;21.77;13.20;;;;;;;;;;6190845;28;20702;-58
2023/05/20 05:36:45;;;;;;;32.72;16.98;;;;;;;;;;6190970;28;20054;-56
2023/05/20 05:39:46;;;;;;;22.17;13.63;;;;;;;;;;6189192;28;20042;-55
2023/05/20 05:42:46;;;;;;;21.85;13.30;;;;;;;;;;6191088;28;20394;-54
2023/05/20 05:45:47;;;;;;;22.08;13.00;;;;;;;;;;6190639;28;20049;-58
2023/05/20 05:48:49;;;;;;;19.80;11.88;;;;;;;;;;6189635;28;20128;-57
2023/05/20 05:51:50;;;;;;;16.27;10.65;;;;;;;;;;6190750;28;20129;-59
2023/05/20 05:54:50;;;;;;;19.38;11.38;;;;;;;;;;6190794;28;20038;-54
2023/05/20 05:57:51;;;;;;;16.92;10.07;;;;;;;;;;6189981;28;20429;-60
2023/05/20 06:00:53;;;;;;;17.13;10.30;;;;;;;;;;6188631;28;20042;-58
2023/05/20 06:03:54;;;;;;;15.40;10.07;;;;;;;;;;6193559;28;20046;-58
2023/05/20 06:06:54;;;;;;;16.05;9.70;;;;;;;;;;6194948;28;20042;-57
2023/05/20 06:09:55;;;;;;;16.10;9.55;;;;;;;;;;6193283;28;20054;-57
2023/05/20 06:12:55;;;;;;;16.55;10.48;;;;;;;;;;6194936;28;20046;-58
2023/05/20 06:15:56;;;;;;;16.08;10.10;;;;;;;;;;6194621;28;20066;-61
2023/05/20 06:18:57;;;;;;;18.50;10.95;;;;;;;;;;6193176;28;20416;-59
2023/05/20 06:21:57;;;;;;;16.05;10.77;;;;;;;;;;6194577;28;20081;-56
2023/05/20 06:25:01;;;;;;;17.60;11.15;;;;;;;;;;6194590;28;20623;-58
2023/05/20 06:28:01;;;;;;;20.25;11.85;;;;;;;;;;6193418;28;20042;-57
2023/05/20 06:31:02;;;;;;;18.48;11.07;;;;;;;;;;6193380;28;20046;-55
2023/05/20 06:34:03;;;;;;;17.75;10.75;;;;;;;;;;6192512;28;20038;-58
2023/05/20 06:37:04;;;;;;;18.83;11.50;;;;;;;;;;6192634;28;20050;-60
2023/05/20 06:40:06;;;;;;;20.67;12.35;;;;;;;;;;6192840;28;20053;-54
2023/05/20 06:43:07;;;;;;;21.85;12.18;;;;;;;;;;6194034;28;20137;-60
2023/05/20 06:46:07;;;;;;;20.52;12.10;;;;;;;;;;6193604;28;20043;-57
2023/05/20 06:49:08;;;;;;;20.35;11.85;;;;;;;;;;6191932;28;20505;-58
2023/05/20 06:52:08;;;;;;;21.42;12.13;;;;;;;;;;6193293;28;20050;-55
2023/05/20 06:55:09;;;;;;;18.55;11.30;;;;;;;;;;6193712;28;20042;-58
2023/05/20 06:58:10;;;;;;;20.13;11.65;;;;;;;;;;6185459;28;20458;-59
2023/05/20 07:01:11;;;;;;;21.10;11.88;;;;;;;;;;6188176;28;20073;-56
2023/05/20 07:04:11;;;;;;;33.35;18.08;;;;;;;;;;6185187;28;20144;-57
2023/05/20 07:07:12;;;;;;;22.75;13.90;;;;;;;;;;6181858;28;20133;-59
2023/05/20 07:10:12;;;;;;;23.63;14.68;;;;;;;;;;6182914;28;20045;-59
2023/05/20 07:13:14;;;;;;;20.95;12.50;;;;;;;;;;6184719;28;20050;-55
2023/05/20 07:16:14;;;;;;;21.17;11.93;;;;;;;;;;6185121;28;20104;-60
2023/05/20 07:19:15;;;;;;;21.67;12.63;;;;;;;;;;6183218;28;20490;-59
2023/05/20 07:22:15;;;;;;;18.60;12.18;;;;;;;;;;6184761;28;20058;-59
2023/05/20 07:25:16;;;;;;;21.08;11.98;;;;;;;;;;6190611;28;20133;-58
2023/05/20 07:28:17;;;;;;;21.27;12.15;;;;;;;;;;6185124;28;20367;-58
2023/05/20 07:31:18;;;;;;;20.42;11.70;;;;;;;;;;6184498;28;20039;-59
2023/05/20 07:34:18;;;;;;;21.73;12.35;;;;;;;;;;6183282;28;20433;-56
2023/05/20 07:37:19;;;;;;;26.00;12.90;;;;;;;;;;6183462;28;20965;-60
2023/05/20 07:40:20;;;;;;;20.23;12.65;;;;;;;;;;6187100;28;20448;-56
2023/05/20 07:43:21;;;;;;;20.85;12.52;;;;;;;;;;6187144;28;20046;-59
2023/05/20 07:46:21;;;;;;;22.17;13.27;;;;;;;;;;6186135;28;20523;-58
2023/05/20 07:49:22;;;;;;;21.33;12.80;;;;;;;;;;6184392;28;20038;-58
2023/05/20 07:52:22;;;;;;;22.08;13.27;;;;;;;;;;6187030;28;20053;-58
2023/05/20 07:55:23;;;;;;;25.60;15.40;;;;;;;;;;6187015;28;20047;-58
2023/05/20 07:58:24;;;;;;;25.13;14.43;;;;;;;;;;6185873;28;20038;-60
2023/05/20 08:01:25;;;;;;;24.92;13.93;;;;;;;;;;6187084;28;20498;-59
2023/05/20 08:04:26;;;;;;;23.47;13.43;;;;;;;;;;6187344;28;20388;-59
2023/05/20 08:07:27;;;;;;;22.42;13.63;;;;;;;;;;6191813;28;20058;-59
2023/05/20 08:10:27;;;;;;;21.08;14.27;;;;;;;;;;6186970;28;20038;-54
2023/05/20 08:13:28;;;;;;;26.08;14.55;;;;;;;;;;6189232;28;20316;-59
2023/05/20 08:16:28;;;;;;;25.90;15.18;;;;;;;;;;6190266;28;20046;-60
2023/05/20 08:19:29;;;;;;;27.17;15.93;;;;;;;;;;6189385;28;20077;-56
2023/05/20 08:22:30;;;;;;;26.38;15.90;;;;;;;;;;6189598;28;20058;-60
2023/05/20 08:25:30;;;;;;;26.95;15.95;;;;;;;;;;6188476;28;20464;-58
2023/05/20 08:28:31;;;;;;;25.27;15.55;;;;;;;;;;6189689;28;20038;-58
2023/05/20 08:31:32;;;;;;;24.02;14.60;;;;;;;;;;6191792;28;20082;-59
2023/05/20 08:34:32;;;;;;;22.80;14.68;;;;;;;;;;6189215;28;20051;-57
2023/05/20 08:37:33;;;;;;;24.08;14.55;;;;;;;;;;6182251;28;20073;-58
2023/05/20 08:40:34;;;;;;;25.52;15.35;;;;;;;;;;6183994;28;20046;-55
2023/05/20 08:43:36;;;;;;;25.98;15.32;;;;;;;;;;6186738;28;20050;-60
2023/05/20 08:46:38;;;;;;;24.33;16.13;;;;;;;;;;6185241;28;20041;-60
2023/05/20 08:49:38;;;;;;;26.50;16.60;;;;;;;;;;6184464;28;20124;-58
2023/05/20 08:52:44;;;;;;;26.05;16.25;;;;;;;;;;6185356;28;20054;-57
2023/05/20 08:55:51;;;;;;;26.92;16.73;;;;;;;;;;6185025;28;20046;-59
2023/05/20 08:58:52;;;;;;;26.88;16.75;;;;;;;;;;6181876;28;20065;-57
2023/05/20 09:01:53;;;;;;;26.75;16.00;;;;;;;;;;6182557;28;22272;-58
2023/05/20 09:04:54;;;;;;;26.15;16.83;;;;;;;;;;6183707;28;20050;-59
2023/05/20 09:08:08;;;;;;;27.50;16.40;;;;;;;;;;6181970;28;20047;-59
2023/05/20 09:11:09;;;;;;;26.35;16.63;;;;;;;;;;6182123;28;20046;-58
2023/05/20 09:14:09;;;;;;;27.73;15.80;;;;;;;;;;6184442;28;20125;-59
2023/05/20 09:17:11;;;;;;;29.45;18.15;;;;;;;;;;6183618;28;20054;-59
2023/05/20 09:20:12;;;;;;;25.88;16.20;;;;;;;;;;6181950;28;20062;-59
2023/05/20 09:23:13;;;;;;;27.23;17.13;;;;;;;;;;6184064;28;20142;-59
2023/05/20 09:26:16;;;;;;;30.55;18.63;;;;;;;;;;6184156;28;20046;-58
2023/05/20 09:29:18;;;;;;;27.73;17.50;;;;;;;;;;6181631;28;20504;-56
2023/05/20 09:32:25;;;;;;;30.40;18.48;;;;;;;;;;6182112;28;20514;-58
2023/05/20 09:35:26;;;;;;;29.88;18.42;;;;;;;;;;6183219;28;20054;-57
2023/05/20 09:38:34;;;;;;;27.27;17.50;;;;;;;;;;6185747;28;20057;-59
2023/05/20 09:41:39;;;;;;;29.10;18.48;;;;;;;;;;6188024;28;20402;-60
2023/05/20 09:44:43;;;;;;;26.15;17.73;;;;;;;;;;6189224;28;20042;-56
2023/05/20 09:47:45;;;;;;;26.08;17.58;;;;;;;;;;6188991;28;20637;-58
2023/05/20 09:50:47;;;;;;;26.77;17.02;;;;;;;;;;6190699;28;20448;-58
2023/05/20 09:53:47;;;;;;;26.30;18.08;;;;;;;;;;6202191;28;20073;-60
2023/05/20 09:56:49;;;;;;;32.63;18.85;;;;;;;;;;6191009;28;20054;-60
2023/05/20 09:59:51;;;;;;;25.73;17.67;;;;;;;;;;6190852;28;20082;-55
2023/05/20 10:02:52;;;;;;;27.30;19.73;;;;;;;;;;6189948;28;20042;-57
2023/05/20 10:06:04;;;;;;;28.63;19.73;;;;;;;;;;6192167;28;20413;-60
2023/05/20 10:09:21;;;;;;;;;;;;;;;;;;6181239;28;20053;-65
2023/05/20 10:12:47;;;;;;;24.63;16.48;;;;;;;;;;6191574;28;19929;-59
2023/05/20 10:15:59;;;;;;;27.38;18.33;;;;;;;;;;6194749;28;20046;-61
2023/05/20 10:19:20;;;;;;;27.53;17.63;;;;;;;;;;6201690;28;20038;-61
2023/05/20 10:22:28;;;;;;;29.23;17.77;;;;;;;;;;6212558;28;20053;-61
2023/05/20 10:25:29;;;;;;;38.97;21.13;;;;;;;;;;6192408;28;20093;-60
2023/05/20 10:28:33;;;;;;;42.97;22.80;;;;;;;;;;6192744;28;20070;-59
2023/05/20 10:31:43;;;;;;;28.17;17.75;;;;;;;;;;6193672;28;20061;-59
2023/05/20 10:34:49;;;;;;;40.53;21.27;;;;;;;;;;6193066;28;20397;-64
2023/05/20 10:37:49;;;;;;;26.90;18.50;;;;;;;;;;6193288;28;20131;-63
2023/05/20 10:40:51;;;;;;;27.42;16.80;;;;;;;;;;6192619;28;20522;-63
2023/05/20 10:44:05;;;;;;;25.92;17.73;;;;;;;;;;6193565;28;20046;-62
2023/05/20 10:47:05;;;;;;;25.27;17.58;;;;;;;;;;6192806;28;20069;-63
2023/05/20 10:50:06;;;;;;;36.25;18.80;;;;;;;;;;6193176;28;20043;-61
2023/05/20 10:53:13;;;;;;;27.48;18.38;;;;;;;;;;6194054;28;20595;-63
2023/05/20 10:56:21;;;;;;;27.58;17.30;;;;;;;;;;6192371;28;20069;-68
2023/05/20 10:59:22;;;;;;;31.83;19.55;;;;;;;;;;6190689;28;20464;-60
2023/05/20 11:02:25;;;;;;;26.02;18.33;;;;;;;;;;6205368;28;20045;-63
2023/05/20 11:05:27;;;;;;;32.40;20.65;;;;;;;;;;6211928;28;20136;-60
2023/05/20 11:08:30;;;;;;;34.38;19.90;;;;;;;;;;6197267;28;20046;-62
2023/05/20 11:11:31;;;;;;;32.92;19.65;;;;;;;;;;6193296;28;20056;-65
2023/05/20 11:14:31;;;;;;;32.25;20.27;;;;;;;;;;6192940;28;20046;-64
2023/05/20 11:17:32;;;;;;;34.43;22.27;;;;;;;;;;6190963;28;20523;-67
2023/05/20 11:20:34;;;;;;;29.42;18.58;;;;;;;;;;6190940;28;20046;-62
2023/05/20 11:23:36;;;;;;;32.40;20.25;;;;;;;;;;6192331;28;20093;-64
2023/05/20 11:26:36;;;;;;;38.00;22.52;;;;;;;;;;6190657;28;20042;-66
2023/05/20 11:29:39;;;;;;;39.70;20.55;;;;;;;;;;6192330;28;20042;-64
2023/05/20 11:32:39;;;;;;;59.70;26.40;;;;;;;;;;6192922;28;20050;-62
2023/05/20 11:35:51;;;;;;;32.17;20.80;;;;;;;;;;6192241;28;20137;-66
2023/05/20 11:38:52;;;;;;;35.58;21.63;;;;;;;;;;6191521;28;20406;-65
2023/05/20 11:41:53;;;;;;;32.72;20.27;;;;;;;;;;6192522;28;20057;-64
2023/05/20 11:44:53;;;;;;;30.63;20.80;;;;;;;;;;6192715;28;20580;-64
2023/05/20 11:48:01;;;;;;;34.40;21.10;;;;;;;;;;6191282;28;20062;-66
2023/05/20 11:51:01;;;;;;;38.75;22.23;;;;;;;;;;6191341;28;20038;-64
2023/05/20 11:54:04;;;;;;;31.63;20.80;;;;;;;;;;6192296;28;20046;-61
2023/05/20 11:57:04;;;;;;;33.83;21.00;;;;;;;;;;6185289;28;20046;-67
2023/05/20 12:00:06;;;;;;;32.28;20.55;;;;;;;;;;6191134;28;20080;-64
2023/05/20 12:03:07;;;;;;;32.83;21.20;;;;;;;;;;6192240;28;20516;-64
2023/05/20 12:06:11;;;;;;;32.67;21.33;;;;;;;;;;6191562;28;20132;-65
2023/05/20 12:09:12;;;;;;;40.25;23.40;;;;;;;;;;6181398;28;20058;-62
2023/05/20 12:12:13;;;;;;;33.55;21.65;;;;;;;;;;6183711;28;20050;-63
2023/05/20 12:15:14;;;;;;;32.35;20.15;;;;;;;;;;6184073;28;20490;-63
2023/05/20 12:18:14;;;;;;;33.83;20.67;;;;;;;;;;6180768;28;20056;-60
2023/05/20 12:21:15;;;;;;;29.92;19.02;;;;;;;;;;6182601;28;20042;-66
2023/05/20 12:24:15;;;;;;;28.52;19.00;;;;;;;;;;6182654;28;20060;-61
2023/05/20 12:27:16;;;;;;;29.10;18.43;;;;;;;;;;6182334;28;20594;-63
2023/05/20 12:30:19;;;;;;;30.00;19.37;;;;;;;;;;6181256;28;20074;-64
2023/05/20 12:33:20;;;;;;;31.77;20.65;;;;;;;;;;6183060;28;20050;-64
2023/05/20 12:36:20;;;;;;;30.97;20.20;;;;;;;;;;6180597;28;20063;-65
2023/05/20 12:39:21;;;;;;;33.70;20.00;;;;;;;;;;6179699;28;20073;-64
2023/05/20 12:42:23;;;;;;;;;;;;;;;;;;6184486;28;20093;-68
2023/05/20 12:45:23;;;;;;;32.55;20.00;;;;;;;;;;6183704;28;20035;-67
2023/05/20 12:48:24;;;;;;;29.57;19.30;;;;;;;;;;6179263;28;20450;-66
2023/05/20 12:51:24;;;;;;;30.23;19.80;;;;;;;;;;6183366;28;20050;-60
2023/05/20 12:54:28;;;;;;;29.97;18.77;;;;;;;;;;6182473;28;20050;-59
2023/05/20 12:57:32;;;;;;;28.30;18.52;;;;;;;;;;6180223;28;20046;-60
2023/05/20 13:00:34;;;;;;;27.83;18.83;;;;;;;;;;6160863;28;20042;-65
2023/05/20 13:03:35;;;;;;;26.38;18.35;;;;;;;;;;6182240;28;20093;-68
2023/05/20 13:06:36;;;;;;;26.57;18.03;;;;;;;;;;6181136;28;20490;-68
2023/05/20 13:09:36;;;;;;;25.80;17.83;;;;;;;;;;6179663;28;20497;-62
2023/05/20 13:12:37;;;;;;;26.77;17.93;;;;;;;;;;6185952;28;20125;-68
2023/05/20 13:15:38;;;;;;;28.40;19.37;;;;;;;;;;6188144;28;20061;-66
2023/05/20 13:18:38;;;;;;;26.37;19.60;;;;;;;;;;6183160;28;20461;-65
2023/05/20 13:21:39;;;;;;;26.87;18.47;;;;;;;;;;6186184;28;20133;-67
2023/05/20 13:24:40;;;;;;;26.13;18.47;;;;;;;;;;6187628;28;20066;-70
2023/05/20 13:27:41;;;;;;;29.93;18.67;;;;;;;;;;6176865;28;20054;-66
2023/05/20 13:30:42;;;;;;;28.25;18.58;;;;;;;;;;6182401;28;20057;-65
2023/05/20 13:33:42;;;;;;;27.20;17.80;;;;;;;;;;6184703;28;20061;-68
2023/05/20 13:36:44;;;;;;;31.00;18.37;;;;;;;;;;6182475;28;20054;-67
2023/05/20 13:39:44;;;;;;;32.63;18.85;;;;;;;;;;6182381;28;20046;-61
2023/05/20 13:42:45;;;;;;;27.27;17.03;;;;;;;;;;6176575;28;20054;-61
2023/05/20 13:45:45;;;;;;;31.40;19.07;;;;;;;;;;6178264;28;20047;-60
2023/05/20 13:48:46;;;;;;;29.53;17.73;;;;;;;;;;6178728;28;20648;-59
2023/05/20 13:51:47;;;;;;;25.37;17.27;;;;;;;;;;6175905;28;20050;-62
2023/05/20 13:54:48;;;;;;;27.40;17.83;;;;;;;;;;6177520;28;20046;-59
2023/05/20 13:57:48;;;;;;;26.37;17.17;;;;;;;;;;6176137;28;20061;-60
2023/05/20 14:00:49;;;;;;;25.97;16.87;;;;;;;;;;6177322;28;20058;-59
2023/05/20 14:03:50;;;;;;;23.83;16.98;;;;;;;;;;6178410;28;20058;-61
2023/05/20 14:06:51;;;;;;;24.13;16.70;;;;;;;;;;6180718;28;20050;-64
2023/05/20 14:09:51;;;;;;;29.53;20.10;;;;;;;;;;6178231;28;20501;-59
2023/05/20 14:12:53;;;;;;;23.80;16.27;;;;;;;;;;6177432;28;20129;-67
2023/05/20 14:15:53;;;;;;;27.87;17.93;;;;;;;;;;6178841;28;20042;-61
2023/05/20 14:18:54;;;;;;;26.50;18.27;;;;;;;;;;6178632;28;20038;-62
2023/05/20 14:21:54;;;;;;;25.00;17.67;;;;;;;;;;6177128;28;20057;-68
2023/05/20 14:24:55;;;;;;;30.27;16.33;;;;;;;;;;6179319;28;20144;-64
2023/05/20 14:27:55;;;;;;;24.97;16.60;;;;;;;;;;6177729;28;20050;-66
2023/05/20 14:30:56;;;;;;;24.50;16.50;;;;;;;;;;6177116;28;20490;-65
2023/05/20 14:33:57;;;;;;;23.30;17.30;;;;;;;;;;6182218;28;20051;-61
2023/05/20 14:36:58;;;;;;;26.07;17.53;;;;;;;;;;6175315;28;20101;-67
2023/05/20 14:39:59;;;;;;;28.70;17.60;;;;;;;;;;6181212;28;20050;-60
2023/05/20 14:42:59;;;;;;;24.10;16.42;;;;;;;;;;6178150;28;20054;-64
2023/05/20 14:46:02;;;;;;;23.30;16.37;;;;;;;;;;6178689;28;20055;-67
2023/05/20 14:49:02;;;;;;;24.67;16.50;;;;;;;;;;6179838;28;20073;-60
2023/05/20 14:52:04;;;;;;;24.37;16.43;;;;;;;;;;6175948;28;20073;-64
2023/05/20 14:55:04;;;;;;;;;;;;;;;;;;6178089;28;20060;-61
2023/05/20 14:58:05;;;;;;;21.27;14.93;;;;;;;;;;6175654;28;19929;-64
2023/05/20 15:01:05;;;;;;;28.57;17.40;;;;;;;;;;6177308;28;20061;-62
2023/05/20 15:04:06;;;;;;;21.40;14.83;;;;;;;;;;6177323;28;20046;-61
2023/05/20 15:07:07;;;;;;;21.27;14.40;;;;;;;;;;6174901;28;20141;-62
2023/05/20 15:10:08;;;;;;;25.77;15.05;;;;;;;;;;6178575;28;21352;-63
2023/05/20 15:13:09;;;;;;;20.58;14.35;;;;;;;;;;6177517;28;20101;-68
2023/05/20 15:16:09;;;;;;;23.83;15.57;;;;;;;;;;6175803;28;20050;-69
2023/05/20 15:19:11;;;;;;;19.43;14.03;;;;;;;;;;6176939;28;20091;-64
2023/05/20 15:22:11;;;;;;;;;;;;;;;;;;6175490;28;20701;-68
2023/05/20 15:25:13;;;;;;;17.90;14.15;;;;;;;;;;6177368;28;19926;-68
2023/05/20 15:28:13;;;;;;;18.97;13.77;;;;;;;;;;6173108;28;20050;-64
2023/05/20 15:31:14;;;;;;;22.77;15.50;;;;;;;;;;6173566;28;20042;-65
2023/05/20 15:34:15;;;;;;;24.63;15.63;;;;;;;;;;6175896;28;20592;-67
2023/05/20 15:37:15;;;;;;;20.17;14.87;;;;;;;;;;6174868;28;20046;-67
2023/05/20 15:40:16;;;;;;;22.63;15.97;;;;;;;;;;6178154;28;20602;-66
2023/05/20 15:43:17;;;;;;;21.00;15.50;;;;;;;;;;6178649;28;20046;-63
2023/05/20 15:46:18;;;;;;;20.97;14.33;;;;;;;;;;6175739;28;20136;-65
2023/05/20 15:49:18;;;;;;;26.13;15.73;;;;;;;;;;6173946;28;20815;-65
2023/05/20 15:52:19;;;;;;;22.47;15.10;;;;;;;;;;6174905;28;20128;-66
2023/05/20 15:55:22;;;;;;;18.83;14.48;;;;;;;;;;6173470;28;20046;-61
2023/05/20 15:58:22;;;;;;;21.90;16.02;;;;;;;;;;6175288;28;20077;-63
2023/05/20 16:01:25;;;;;;;24.40;17.10;;;;;;;;;;6171129;28;20046;-66
2023/05/20 16:04:25;;;;;;;23.60;16.50;;;;;;;;;;6176955;28;20038;-63
2023/05/20 16:07:27;;;;;;;23.53;16.13;;;;;;;;;;6174944;28;20120;-65
2023/05/20 16:10:31;;;;;;;23.38;17.45;;;;;;;;;;6176114;28;20141;-66
2023/05/20 16:13:32;;;;;;;26.77;17.02;;;;;;;;;;6175605;28;20046;-67
2023/05/20 16:16:32;;;;;;;23.50;16.07;;;;;;;;;;6173607;28;20042;-66
2023/05/20 16:19:33;;;;;;;24.00;17.17;;;;;;;;;;6174674;28;20046;-68
2023/05/20 16:22:34;;;;;;;24.83;17.33;;;;;;;;;;6172304;28;20046;-64
2023/05/20 16:25:35;;;;;;;24.20;17.85;;;;;;;;;;6175893;28;20042;-62
2023/05/20 16:28:35;;;;;;;24.17;17.03;;;;;;;;;;6174941;28;20073;-61
2023/05/20 16:31:36;;;;;;;23.13;17.73;;;;;;;;;;6173479;28;21539;-64
2023/05/20 16:34:37;;;;;;;23.17;17.90;;;;;;;;;;6177071;28;20299;-62
2023/05/20 16:37:38;;;;;;;24.17;16.10;;;;;;;;;;6173937;28;20688;-60
2023/05/20 16:40:38;;;;;;;24.53;16.80;;;;;;;;;;6174785;28;20046;-63
2023/05/20 16:43:39;;;;;;;20.97;15.90;;;;;;;;;;6176309;28;20415;-65
2023/05/20 16:46:40;;;;;;;24.63;16.00;;;;;;;;;;6175478;28;20046;-64
2023/05/20 16:49:41;;;;;;;25.00;16.83;;;;;;;;;;6178463;28;20136;-67
2023/05/20 16:52:41;;;;;;;22.95;15.80;;;;;;;;;;6178646;28;20149;-64
2023/05/20 16:55:42;;;;;;;22.33;16.10;;;;;;;;;;6178714;28;20053;-66
2023/05/20 16:58:43;;;;;;;21.77;16.23;;;;;;;;;;6176432;28;20180;-65
2023/05/20 17:01:44;;;;;;;24.50;16.97;;;;;;;;;;6175586;28;20532;-67
2023/05/20 17:04:45;;;;;;;25.50;18.25;;;;;;;;;;6180044;28;20077;-67
2023/05/20 17:07:47;;;;;;;24.77;16.67;;;;;;;;;;6180377;28;20493;-66
2023/05/20 17:10:48;;;;;;;25.80;17.60;;;;;;;;;;6172823;28;20299;-64
2023/05/20 17:13:49;;;;;;;26.58;17.95;;;;;;;;;;6172427;28;20192;-63
2023/05/20 17:16:50;;;;;;;25.07;16.67;;;;;;;;;;6171890;28;20972;-60
2023/05/20 17:19:50;;;;;;;22.90;16.92;;;;;;;;;;6177781;28;20050;-63
2023/05/20 17:22:51;;;;;;;23.73;18.13;;;;;;;;;;6174872;28;20174;-64
2023/05/20 17:25:52;;;;;;;28.13;18.30;;;;;;;;;;6175352;28;20050;-60
2023/05/20 17:28:52;;;;;;;26.07;17.00;;;;;;;;;;6175958;28;20049;-66
2023/05/20 17:31:53;;;;;;;24.80;18.27;;;;;;;;;;6175363;28;20046;-64
2023/05/20 17:34:53;;;;;;;24.43;18.43;;;;;;;;;;6180363;28;20038;-68
2023/05/20 17:37:54;;;;;;;24.93;17.87;;;;;;;;;;6178799;28;21444;-67